CDT,Max TemperatureF,Mean TemperatureF,Min TemperatureF,Max Dew PointF,MeanDew PointF,Min DewpointF,Max Humidity, Mean Humidity, Min Humidity, Max Sea Level PressureIn, Mean Sea Level PressureIn, Min Sea Level PressureIn, Max VisibilityMiles, Mean VisibilityMiles, Min VisibilityMiles, Max Wind SpeedMPH, Mean Wind SpeedMPH, Max Gust SpeedMPH,PrecipitationIn, CloudCover, Events, WindDirDegrees
2013-8-1,96,85,74,77,75,74,100,77,53,30.04,29.99,29.94,10,8,2,10,3,14,T,2,Rain,29
2013-8-2,96,84,72,77,74,71,94,71,48,30.01,29.99,29.96,10,8,2,9,3,22,0.00,2,,99
2013-8-3,95,84,72,79,75,71,100,78,56,30.07,30.03,29.99,10,7,0,10,2,14,0.00,1,Fog-Rain-Thunderstorm,243
2013-8-4,96,84,72,78,75,71,100,76,51,30.12,30.06,30.00,10,5,0,24,2,40,0.11,1,Fog-Rain,44
2013-8-5,96,86,76,79,75,72,97,75,53,30.06,30.01,29.93,10,9,2,25,5,33,T,3,Rain-Thunderstorm,179
2013-8-6,96,86,75,76,75,73,94,74,53,30.01,29.94,29.89,10,10,10,13,4,16,0.00,2,,189
2013-8-7,96,85,74,77,75,70,94,70,46,29.99,29.94,29.88,10,9,5,12,3,14,0.00,0,,189
2013-8-8,95,84,73,77,74,71,100,75,49,29.98,29.93,29.89,10,8,2,13,3,16,0.00,0,,174
2013-8-9,97,86,74,77,75,72,100,76,51,30.05,29.98,29.93,10,8,0,24,4,33,0.68,3,Fog-Rain-Thunderstorm,139
2013-8-10,93,83,72,78,74,71,100,76,52,30.11,30.05,30.01,10,7,0,14,4,18,T,1,Fog,143
2013-8-11,94,83,72,76,74,71,100,76,52,30.14,30.09,30.04,10,10,9,18,4,26,0.00,1,Rain,156
2013-8-12,91,82,73,78,75,72,94,75,56,30.13,30.06,30.00,10,10,7,18,4,25,0.01,2,Rain-Thunderstorm,172
2013-8-13,89,81,73,79,76,72,100,87,74,30.04,29.99,29.95,10,9,2,12,3,15,0.20,4,Rain-Thunderstorm,206
2013-8-14,87,79,70,75,71,61,100,79,58,30.05,29.99,29.96,10,9,3,17,6,22,0.05,5,Rain,23
2013-8-15,87,76,65,69,65,61,97,74,51,30.06,30.02,29.98,10,10,9,13,5,16,0.00,1,,25
2013-8-16,87,75,63,68,63,60,90,66,42,30.04,30.01,29.97,10,10,10,12,5,16,0.00,1,,20
2013-8-17,85,75,65,71,68,64,100,79,58,30.05,30.02,29.98,10,8,2,15,5,20,T,4,Rain,40
2013-8-18,87,75,63,70,67,62,100,75,50,30.09,30.04,30.01,10,7,2,14,6,18,0.00,1,,57
2013-8-19,88,77,65,71,68,64,100,79,57,30.11,30.05,30.01,10,7,1,10,3,13,0.00,3,Rain,29
2013-8-20,92,78,63,73,68,63,100,72,44,30.11,30.05,30.01,10,5,0,9,2,13,0.00,1,Fog,139
2013-8-21,91,79,67,78,71,66,100,80,59,30.16,30.09,30.06,10,6,0,14,2,18,T,1,Fog-Thunderstorm,74
2013-8-22,94,81,68,75,71,66,100,75,49,30.14,30.09,30.00,10,5,0,9,2,15,0.00,1,Fog-Rain,121
2013-8-23,95,83,70,75,72,70,100,73,46,30.06,30.01,29.95,10,5,0,18,4,24,0.00,1,Fog-Rain-Thunderstorm,52
2013-8-24,94,81,68,75,70,66,100,73,46,30.15,30.07,30.02,10,6,0,17,5,21,T,1,Fog-Rain-Thunderstorm,99
2013-8-25,92,80,67,74,71,64,100,76,52,30.22,30.17,30.14,10,9,2,15,6,23,0.00,0,,95
2013-8-26,92,81,69,72,68,62,90,66,41,30.25,30.18,30.13,10,10,10,13,5,16,0.00,1,,101
2013-8-27,90,76,62,68,64,61,100,71,41,30.18,30.12,30.06,10,10,7,10,3,16,0.00,0,,82
2013-8-28,91,76,60,67,62,59,97,69,40,30.13,30.08,30.04,10,7,2,9,1,13,0.00,0,,49
2013-8-29,93,78,62,72,65,61,100,71,41,30.12,30.06,30.01,10,5,1,10,2,14,0.00,0,,91
2013-8-30,93,79,65,73,67,63,100,74,47,30.06,30.00,29.94,10,4,0,9,1,13,0.00,0,Fog,188
2013-8-31,94,80,66,72,69,64,100,73,46,30.00,29.94,29.88,10,5,0,14,3,29,0.00,0,Fog,185